La Conchita, California
Current Conditions -  °F | °C
As of 4:51 AM on Thursday 23 Oct 2014 (Local Time) from KOXR Reporting Station
Clear Clear  
Wind Chill: 61°   Ceiling: Unl
Heat Index: 61°   Visibility: 10mi
Dew Point: 44°   Wind: 5mph
Humidity: 54%   Direction: 60°ENE
Pressure: 29.93"   Gusts: NA
Location:  34.3488°N, 119.33°W
Report Text: KOXR 231151Z AUTO 06004KT 10SM CLR 16/07 A2993 RMK AO2 SLP134 T01610067 10178 20156 55005
Loading
Personal Weather Stations






























Interactive Weather Map
Tropical Storm Tracking
New forecast layout! Learn more

10-Day Weather Forecast

Advertisements
Track Severe Weather on mobile